Terminal Aerodrome Forecast
Issued by NWS

Home | Current Version | Previous Version | Text Only | Print | Product List | Glossary On
Versions: 1 2 3 4 5 6 7 8 9 10 11 12 13 14 15 16 17 18 19
711
FTUS42 TJSJ 301725
TAFJBQ
TAF
TJBQ 301725Z 3018/0118 10004KT P6SM VCSH FEW022 BKN040 BKN110
     FM301930 06012G18KT P6SM VCTS FEW022CB BKN040 BKN090
     FM302300 09008KT P6SM -RA SCT025 BKN070 BKN120=

USA.gov is the U.S. government's official web portal to all federal, state and local government web resources and services.